createdAt,value
2022-11-01T00:00:32.180Z,99267.06
2022-11-01T00:02:58.852Z,99276.81
2022-11-01T00:05:27.406Z,99265.75
2022-11-01T00:07:54.019Z,99278.09
2022-11-01T00:10:20.864Z,99267.03
2022-11-01T00:12:48.534Z,99264.13
2022-11-01T00:15:15.151Z,99262.63
2022-11-01T00:17:42.226Z,99264.75
2022-11-01T00:20:10.737Z,99254.00
2022-11-01T00:22:38.660Z,99237.84
2022-11-01T00:25:06.342Z,99249.25
2022-11-01T00:27:33.198Z,99238.53
2022-11-01T00:29:59.995Z,99254.63
2022-11-01T00:32:27.351Z,99238.75
2022-11-01T00:34:54.576Z,99234.03
2022-11-01T00:37:21.455Z,99224.59
2022-11-01T00:39:49.399Z,99231.09
2022-11-01T00:42:16.232Z,99232.66
2022-11-01T00:44:43.473Z,99217.28
2022-11-01T00:47:10.300Z,99207.06
2022-11-01T00:49:38.334Z,99226.13
2022-11-01T00:52:05.407Z,99236.31
2022-11-01T00:54:32.947Z,99212.19
2022-11-01T00:57:02.056Z,99195.34
2022-11-01T00:59:28.991Z,99209.81
2022-11-01T01:01:55.975Z,99206.78
2022-11-01T01:04:23.090Z,99192.06
2022-11-01T01:06:49.732Z,99213.25
2022-11-01T01:09:16.681Z,99188.84
2022-11-01T01:11:43.644Z,99199.84
2022-11-01T01:14:12.216Z,99219.88
2022-11-01T01:16:39.509Z,99207.69
2022-11-01T01:19:06.194Z,99200.41
2022-11-01T01:21:34.100Z,99222.00
2022-11-01T01:24:00.616Z,99218.72
2022-11-01T01:26:27.471Z,99214.91
2022-11-01T01:28:54.613Z,99191.81
2022-11-01T01:31:23.327Z,99202.22
2022-11-01T01:33:50.918Z,99180.78
2022-11-01T01:36:17.781Z,99175.22
2022-11-01T01:38:44.937Z,99181.69
2022-11-01T01:41:12.175Z,99199.88
2022-11-01T01:43:43.853Z,99196.19
2022-11-01T01:46:10.490Z,99198.00
2022-11-01T01:48:40.732Z,99191.72
2022-11-01T01:51:13.907Z,99189.66
2022-11-01T01:53:45.729Z,99189.94
2022-11-01T01:56:18.629Z,99179.56
2022-11-01T01:58:51.114Z,99191.44
2022-11-01T02:01:18.138Z,99184.50
2022-11-01T02:03:47.350Z,99182.13
2022-11-01T02:06:16.610Z,99168.97
2022-11-01T02:08:45.272Z,99177.31
2022-11-01T02:11:13.188Z,99186.28
2022-11-01T02:13:40.744Z,99175.03
2022-11-01T02:16:36.847Z,99192.28
2022-11-01T02:19:44.567Z,99196.66
2022-11-01T02:22:21.954Z,99179.03
2022-11-01T02:25:05.560Z,99178.09
2022-11-01T02:27:47.493Z,99176.38
2022-11-01T02:30:17.211Z,99174.75
2022-11-01T02:33:13.432Z,99188.72
2022-11-01T02:35:48.192Z,99172.44
2022-11-01T02:38:23.586Z,99171.81
2022-11-01T02:41:00.829Z,99168.66
2022-11-01T02:43:34.570Z,99185.91
2022-11-01T02:46:03.531Z,99186.63
2022-11-01T02:48:32.367Z,99173.41
2022-11-01T02:51:00.330Z,99176.47
2022-11-01T02:53:27.506Z,99175.69
2022-11-01T02:55:54.530Z,99166.28
2022-11-01T02:58:24.423Z,99164.56
2022-11-01T03:00:51.733Z,99174.50
2022-11-01T03:03:23.332Z,99175.63
2022-11-01T03:06:07.025Z,99175.69
2022-11-01T03:08:41.152Z,99189.38
2022-11-01T03:11:11.280Z,99175.94
2022-11-01T03:13:53.697Z,99177.50
2022-11-01T03:16:28.453Z,99177.59
2022-11-01T03:19:06.451Z,99173.31
2022-11-01T03:21:40.709Z,99178.59
2022-11-01T03:24:17.958Z,99176.97
2022-11-01T03:26:50.457Z,99184.09
2022-11-01T03:29:19.564Z,99200.13
2022-11-01T03:31:49.738Z,99181.56
2022-11-01T03:34:20.155Z,99200.44
2022-11-01T03:36:52.990Z,99204.22
2022-11-01T03:39:24.918Z,99185.56
2022-11-01T03:41:58.871Z,99196.84
2022-11-01T03:44:30.801Z,99201.50
2022-11-01T03:46:57.835Z,99188.25
2022-11-01T03:49:24.703Z,99207.25
2022-11-01T03:51:53.069Z,99201.81
2022-11-01T03:54:19.595Z,99215.34
2022-11-01T03:56:47.193Z,99202.38
2022-11-01T03:59:14.116Z,99223.59
2022-11-01T04:01:40.816Z,99241.03
2022-11-01T04:04:07.847Z,99227.81
2022-11-01T04:06:34.633Z,99243.53
2022-11-01T04:09:03.199Z,99243.00
2022-11-01T04:11:29.736Z,99224.91
2022-11-01T04:13:56.765Z,99240.78
2022-11-01T04:16:23.502Z,99240.47
2022-11-01T04:18:50.166Z,99232.53
2022-11-01T04:21:19.097Z,99249.16
2022-11-01T04:23:47.332Z,99248.59
2022-11-01T04:26:17.453Z,99256.91
2022-11-01T04:28:44.589Z,99258.94
2022-11-01T04:31:12.225Z,99273.44
2022-11-01T04:33:39.339Z,99249.53
2022-11-01T04:36:07.574Z,99249.19
2022-11-01T04:38:34.745Z,99264.53
2022-11-01T04:41:01.909Z,99278.63
2022-11-01T04:43:29.787Z,99287.22
2022-11-01T04:45:56.959Z,99281.06
2022-11-01T04:48:24.299Z,99275.13
2022-11-01T04:50:50.841Z,99280.31
2022-11-01T04:53:17.513Z,99288.25
2022-11-01T04:55:44.006Z,99286.34
2022-11-01T04:58:10.553Z,99293.59
2022-11-01T05:00:41.517Z,99290.72
2022-11-01T05:03:08.307Z,99300.75
2022-11-01T05:05:35.559Z,99310.22
2022-11-01T05:10:35.085Z,99329.03
2022-11-01T05:13:02.308Z,99321.81
2022-11-01T05:15:29.445Z,99330.59
2022-11-01T05:17:57.666Z,99318.94
2022-11-01T05:20:24.240Z,99331.63
2022-11-01T05:22:51.221Z,99332.88
2022-11-01T05:25:17.754Z,99346.81
2022-11-01T05:27:44.354Z,99343.69
2022-11-01T05:30:12.276Z,99355.28
2022-11-01T05:32:39.140Z,99350.75
2022-11-01T05:35:07.811Z,99360.44
2022-11-01T05:37:37.169Z,99362.38
2022-11-01T05:40:04.334Z,99369.38
2022-11-01T05:42:30.901Z,99370.19
2022-11-01T05:44:57.516Z,99380.09
2022-11-01T05:47:26.446Z,99381.81
2022-11-01T05:49:53.002Z,99385.66
2022-11-01T05:52:21.053Z,99379.59
2022-11-01T05:54:47.762Z,99382.13
2022-11-01T05:57:14.287Z,99398.25
2022-11-01T05:59:40.795Z,99387.34
2022-11-01T06:02:07.802Z,99370.41
2022-11-01T06:04:49.474Z,99392.13
2022-11-01T06:07:16.067Z,99389.88
2022-11-01T06:09:44.294Z,99406.94
2022-11-01T06:12:12.293Z,99407.81
2022-11-01T06:14:39.266Z,99408.72
2022-11-01T06:17:07.253Z,99424.72
2022-11-01T06:19:33.746Z,99431.72
2022-11-01T06:22:00.631Z,99421.88
2022-11-01T06:24:33.016Z,99420.47
2022-11-01T06:27:01.072Z,99458.16
2022-11-01T06:29:27.773Z,99457.34
2022-11-01T06:31:54.616Z,99470.22
2022-11-01T06:34:21.398Z,99482.53
2022-11-01T06:36:50.918Z,99485.19
2022-11-01T06:39:18.693Z,99490.09
2022-11-01T06:41:53.727Z,99472.47
2022-11-01T06:44:23.974Z,99480.72
2022-11-01T06:46:51.528Z,99501.94
2022-11-01T06:49:58.280Z,99498.31
2022-11-01T06:52:41.065Z,99505.72
2022-11-01T06:55:33.589Z,99536.66
2022-11-01T06:58:13.651Z,99525.00
2022-11-01T07:00:44.295Z,99520.41
2022-11-01T07:03:21.350Z,99521.13
2022-11-01T07:05:48.186Z,99545.16
2022-11-01T07:08:16.886Z,99566.28
2022-11-01T07:10:52.843Z,99542.56
2022-11-01T07:13:22.260Z,99550.38
2022-11-01T07:15:59.977Z,99565.28
2022-11-01T07:18:58.429Z,99579.59
2022-11-01T07:22:32.017Z,99600.91
2022-11-01T07:27:39.171Z,99612.44
2022-11-01T07:30:12.014Z,99605.81
2022-11-01T07:32:43.825Z,99608.53
2022-11-01T07:35:13.480Z,99612.53
2022-11-01T07:37:50.164Z,99612.53
2022-11-01T07:40:24.481Z,99614.41
2022-11-01T07:42:58.764Z,99639.88
2022-11-01T07:45:35.468Z,99647.59
2022-11-01T07:48:16.656Z,99654.38
2022-11-01T07:50:49.633Z,99641.94
2022-11-01T07:53:20.907Z,99633.72
2022-11-01T07:55:51.881Z,99653.72
2022-11-01T07:58:26.795Z,99643.13
2022-11-01T08:01:07.621Z,99636.31
2022-11-01T08:03:41.108Z,99636.25
2022-11-01T08:06:10.410Z,99658.97
2022-11-01T08:08:40.446Z,99643.91
2022-11-01T08:11:13.115Z,99666.47
2022-11-01T08:13:43.864Z,99636.69
2022-11-01T08:16:15.863Z,99664.16
2022-11-01T08:18:48.318Z,99671.78
2022-11-01T08:21:15.315Z,99676.72
2022-11-01T08:23:42.213Z,99674.16
2022-11-01T08:26:08.990Z,99683.59
2022-11-01T08:28:35.597Z,99692.94
2022-11-01T08:31:05.649Z,99685.97
2022-11-01T08:33:32.370Z,99702.03
2022-11-01T08:36:00.326Z,99705.59
2022-11-01T08:38:27.004Z,99711.19
2022-11-01T08:40:53.907Z,99706.56
2022-11-01T08:43:21.723Z,99714.88
2022-11-01T08:45:49.317Z,99710.56
2022-11-01T08:48:16.232Z,99718.75
2022-11-01T08:50:43.092Z,99722.16
2022-11-01T08:53:13.253Z,99744.03
2022-11-01T08:55:42.731Z,99742.84
2022-11-01T08:58:09.523Z,99730.59
2022-11-01T09:00:36.303Z,99728.22
2022-11-01T09:03:03.449Z,99752.63
2022-11-01T09:05:30.064Z,99751.59
2022-11-01T09:07:57.996Z,99751.03
2022-11-01T09:10:26.543Z,99753.63
2022-11-01T09:12:53.755Z,99744.50
2022-11-01T09:15:20.384Z,99740.34
2022-11-01T09:17:47.256Z,99745.03
2022-11-01T09:20:13.780Z,99737.03
2022-11-01T09:22:42.416Z,99741.50
2022-11-01T09:25:10.044Z,99751.38
2022-11-01T09:27:38.513Z,99753.81
2022-11-01T09:30:06.380Z,99763.91
2022-11-01T09:32:38.056Z,99751.06
2022-11-01T09:35:06.112Z,99741.94
2022-11-01T09:37:32.727Z,99754.50
2022-11-01T09:39:59.388Z,99759.09
2022-11-01T09:42:31.063Z,99760.06
2022-11-01T09:45:05.001Z,99777.31
2022-11-01T09:47:33.254Z,99762.50
2022-11-01T09:50:05.682Z,99758.88
2022-11-01T09:52:33.193Z,99759.63
2022-11-01T09:54:59.825Z,99770.94
2022-11-01T09:57:34.362Z,99759.31
2022-11-01T10:00:10.730Z,99764.28
2022-11-01T10:03:16.484Z,99772.91
2022-11-01T10:05:51.247Z,99774.97
2022-11-01T10:08:31.064Z,99786.84
2022-11-01T10:11:14.466Z,99772.97
2022-11-01T10:13:52.238Z,99767.75
2022-11-01T10:16:31.119Z,99788.59
2022-11-01T10:19:03.705Z,99783.06
2022-11-01T10:21:40.850Z,99784.97
2022-11-01T10:24:14.625Z,99765.56
2022-11-01T10:26:41.619Z,99771.16
2022-11-01T10:29:16.151Z,99786.06
2022-11-01T10:31:47.862Z,99776.16
2022-11-01T10:34:21.177Z,99787.22
2022-11-01T10:36:48.956Z,99772.56
2022-11-01T10:39:53.235Z,99796.50
2022-11-01T10:42:09.069Z,99795.41
2022-11-01T10:44:39.634Z,99791.16
2022-11-01T10:47:13.554Z,99769.28
2022-11-01T10:50:04.964Z,99780.44
2022-11-01T10:52:36.733Z,99793.84
2022-11-01T10:55:05.138Z,99797.28
2022-11-01T10:57:38.160Z,99790.53
2022-11-01T11:00:14.649Z,99785.19
2022-11-01T11:02:45.897Z,99795.97
2022-11-01T11:05:13.413Z,99793.13
2022-11-01T11:07:40.430Z,99772.84
2022-11-01T11:10:21.032Z,99778.09
2022-11-01T11:12:54.024Z,99785.34
2022-11-01T11:15:25.659Z,99781.41
2022-11-01T11:17:59.409Z,99793.72
2022-11-01T11:20:27.350Z,99782.13
2022-11-01T11:22:53.911Z,99789.50
2022-11-01T11:25:27.910Z,99793.09
2022-11-01T11:27:54.648Z,99790.66
2022-11-01T11:30:29.791Z,99794.69
2022-11-01T11:32:58.648Z,99796.16
2022-11-01T11:35:27.493Z,99796.34
2022-11-01T11:37:56.515Z,99782.38
2022-11-01T11:40:24.914Z,99783.19
2022-11-01T11:42:55.020Z,99788.03
2022-11-01T11:45:27.457Z,99784.78
2022-11-01T11:47:54.802Z,99793.56
2022-11-01T11:50:30.366Z,99805.53
2022-11-01T11:52:59.878Z,99785.47
2022-11-01T11:55:35.007Z,99800.44
2022-11-01T11:58:07.279Z,99792.16
2022-11-01T12:00:39.301Z,99789.34
2022-11-01T12:03:14.932Z,99784.66
2022-11-01T12:05:53.490Z,99809.38
2022-11-01T12:08:29.555Z,99792.09
2022-11-01T12:10:57.928Z,99789.66
2022-11-01T12:13:33.089Z,99794.78
2022-11-01T12:16:18.763Z,99797.88
2022-11-01T12:18:49.781Z,99790.00
2022-11-01T12:21:22.187Z,99780.56
2022-11-01T12:27:21.474Z,99782.97
2022-11-01T12:30:09.456Z,99771.06
2022-11-01T12:32:49.941Z,99787.06
2022-11-01T12:35:29.933Z,99793.53
2022-11-01T12:38:38.410Z,99775.16
2022-11-01T12:41:24.270Z,99790.78
2022-11-01T12:44:28.857Z,99801.16
2022-11-01T12:46:59.873Z,99796.56
2022-11-01T12:49:55.269Z,99780.44
2022-11-01T12:52:29.915Z,99799.50
2022-11-01T12:55:08.564Z,99806.31
2022-11-01T12:57:35.549Z,99798.00
2022-11-01T13:00:19.308Z,99782.13
2022-11-01T13:02:59.204Z,99773.81
2022-11-01T13:05:34.574Z,99790.84
2022-11-01T13:08:22.520Z,99790.59
2022-11-01T13:10:50.981Z,99799.97
2022-11-01T13:13:28.367Z,99797.78
2022-11-01T13:16:04.723Z,99776.09
2022-11-01T13:18:42.762Z,99781.28
2022-11-01T13:21:15.422Z,99792.41
2022-11-01T13:23:47.678Z,99794.50
2022-11-01T13:26:22.980Z,99787.03
2022-11-01T13:29:00.617Z,99795.75
2022-11-01T13:31:37.648Z,99799.28
2022-11-01T13:34:16.534Z,99807.06
2022-11-01T13:36:49.400Z,99806.50
2022-11-01T13:39:25.294Z,99806.97
2022-11-01T13:42:03.345Z,99795.13
2022-11-01T13:44:35.576Z,99786.00
2022-11-01T13:47:38.155Z,99792.81
2022-11-01T13:50:44.902Z,99791.69
2022-11-01T13:53:17.620Z,99786.81
2022-11-01T13:55:52.609Z,99770.44
2022-11-01T13:58:22.560Z,99789.56
2022-11-01T14:00:52.282Z,99785.44
2022-11-01T14:03:24.179Z,99795.38
2022-11-01T14:06:26.175Z,99796.03
2022-11-01T14:09:32.591Z,99794.13
2022-11-01T14:12:12.060Z,99785.06
2022-11-01T14:14:51.798Z,99790.97
2022-11-01T14:17:53.116Z,99789.31
2022-11-01T14:20:50.552Z,99786.84
2022-11-01T14:23:58.548Z,99782.75
2022-11-01T14:26:53.573Z,99789.03
2022-11-01T14:29:20.328Z,99781.34
2022-11-01T14:31:51.661Z,99779.81
2022-11-01T14:34:25.138Z,99788.81
2022-11-01T14:36:55.485Z,99788.09
2022-11-01T14:39:31.384Z,99793.22
2022-11-01T14:41:59.607Z,99785.88
2022-11-01T14:44:31.667Z,99791.41
2022-11-01T14:47:04.992Z,99790.03
2022-11-01T14:49:37.939Z,99795.66
2022-11-01T14:52:10.695Z,99802.44
2022-11-01T14:54:47.305Z,99793.19
2022-11-01T14:57:22.474Z,99804.19
2022-11-01T14:59:49.000Z,99802.47
2022-11-01T15:02:17.431Z,99791.03
2022-11-01T15:04:45.740Z,99792.78
2022-11-01T15:07:19.527Z,99798.41
2022-11-01T15:09:55.527Z,99804.25
2022-11-01T15:12:22.581Z,99809.47
2022-11-01T15:14:50.342Z,99813.22
2022-11-01T15:17:22.079Z,99802.22
2022-11-01T15:19:51.093Z,99810.91
2022-11-01T15:22:20.088Z,99805.41
2022-11-01T15:24:51.700Z,99812.53
2022-11-01T15:27:21.079Z,99813.44
2022-11-01T15:29:48.501Z,99821.78
2022-11-01T15:32:25.897Z,99821.03
2022-11-01T15:34:53.196Z,99825.47
2022-11-01T15:37:22.557Z,99821.84
2022-11-01T15:39:54.339Z,99815.59
2022-11-01T15:42:22.481Z,99826.94
2022-11-01T15:44:49.596Z,99825.09
2022-11-01T15:47:19.932Z,99823.78
2022-11-01T15:49:51.507Z,99833.84
2022-11-01T15:52:20.849Z,99827.25
2022-11-01T15:54:52.187Z,99820.44
2022-11-01T15:57:22.479Z,99822.94
2022-11-01T15:59:56.600Z,99815.34
2022-11-01T16:02:28.525Z,99818.81
2022-11-01T16:04:58.401Z,99825.56
2022-11-01T16:07:26.691Z,99820.72
2022-11-01T16:09:55.977Z,99816.50
2022-11-01T16:12:24.618Z,99820.84
2022-11-01T16:14:54.264Z,99826.13
2022-11-01T16:17:30.514Z,99814.88
2022-11-01T16:19:58.698Z,99811.75
2022-11-01T16:22:29.035Z,99818.53
2022-11-01T16:25:14.882Z,99822.13
2022-11-01T16:27:53.089Z,99820.63
2022-11-01T16:30:37.372Z,99816.19
2022-11-01T16:33:10.897Z,99821.84
2022-11-01T16:35:42.141Z,99825.84
2022-11-01T16:38:24.942Z,99829.91
2022-11-01T16:40:54.956Z,99841.16
2022-11-01T16:43:21.874Z,99839.63
2022-11-01T16:45:48.458Z,99846.94
2022-11-01T16:48:25.062Z,99849.03
2022-11-01T16:50:54.745Z,99851.16
2022-11-01T16:53:21.787Z,99851.16
2022-11-01T16:55:48.943Z,99857.25
2022-11-01T16:58:17.917Z,99852.09
2022-11-01T17:00:55.228Z,99860.56
2022-11-01T17:03:23.632Z,99856.66
2022-11-01T17:05:55.922Z,99861.66
2022-11-01T17:08:27.189Z,99851.59
2022-11-01T17:10:54.121Z,99861.09
2022-11-01T17:13:20.728Z,99866.66
2022-11-01T17:15:49.471Z,99850.47
2022-11-01T17:18:24.253Z,99861.81
2022-11-01T17:20:53.208Z,99850.84
2022-11-01T17:23:23.143Z,99874.88
2022-11-01T17:25:52.619Z,99876.75
2022-11-01T17:28:23.899Z,99861.69
2022-11-01T17:31:01.955Z,99848.88
2022-11-01T17:33:36.517Z,99867.56
2022-11-01T17:36:05.288Z,99859.81
2022-11-01T17:38:37.079Z,99871.41
2022-11-01T17:41:18.253Z,99869.41
2022-11-01T17:43:47.748Z,99857.59
2022-11-01T17:46:18.601Z,99870.03
2022-11-01T17:48:45.850Z,99873.91
2022-11-01T17:51:12.722Z,99854.22
2022-11-01T17:53:39.465Z,99863.19
2022-11-01T17:56:08.945Z,99871.41
2022-11-01T17:58:46.807Z,99876.03
2022-11-01T18:01:21.294Z,99880.13
2022-11-01T18:03:59.165Z,99866.78
2022-11-01T18:06:26.510Z,99863.44
2022-11-01T18:08:55.837Z,99870.53
2022-11-01T18:11:36.120Z,99870.53
2022-11-01T18:14:12.920Z,99877.75
2022-11-01T18:16:48.870Z,99880.88
2022-11-01T18:19:43.550Z,99852.69
2022-11-01T18:22:19.080Z,99868.50
2022-11-01T18:24:51.566Z,99859.19
2022-11-01T18:27:24.488Z,99854.56
2022-11-01T18:29:51.827Z,99862.78
2022-11-01T18:32:30.866Z,99868.25
2022-11-01T18:35:02.957Z,99870.13
2022-11-01T18:37:40.383Z,99875.84
2022-11-01T18:40:16.831Z,99876.13
2022-11-01T18:42:46.754Z,99855.78
2022-11-01T18:45:19.844Z,99854.97
2022-11-01T18:50:36.060Z,99870.53
2022-11-01T18:53:15.483Z,99860.06
2022-11-01T18:56:15.587Z,99867.16
2022-11-01T18:58:46.730Z,99871.91
2022-11-01T19:01:17.272Z,99855.13
2022-11-01T19:03:44.244Z,99856.59
2022-11-01T19:06:21.125Z,99872.38
2022-11-01T19:08:55.922Z,99864.09
2022-11-01T19:11:22.772Z,99856.28
2022-11-01T19:13:51.081Z,99859.16
2022-11-01T19:16:19.007Z,99871.69
2022-11-01T19:18:46.434Z,99841.28
2022-11-01T19:21:15.756Z,99857.34
2022-11-01T19:23:44.276Z,99845.09
2022-11-01T19:26:20.289Z,99879.41
2022-11-01T19:28:51.755Z,99865.50
2022-11-01T19:31:29.179Z,99850.94
2022-11-01T19:33:59.030Z,99850.59
2022-11-01T19:36:36.235Z,99867.25
2022-11-01T19:39:21.682Z,99848.69
2022-11-01T19:41:49.425Z,99848.78
2022-11-01T19:44:21.444Z,99850.84
2022-11-01T19:46:49.466Z,99871.41
2022-11-01T19:49:22.655Z,99858.75
2022-11-01T19:51:59.043Z,99853.06
2022-11-01T19:54:29.702Z,99851.88
2022-11-01T19:56:59.205Z,99860.78
2022-11-01T19:59:27.119Z,99849.31
2022-11-01T20:01:55.918Z,99856.34
2022-11-01T20:04:27.653Z,99859.28
2022-11-01T20:06:56.945Z,99858.91
2022-11-01T20:09:26.256Z,99852.91
2022-11-01T20:11:53.501Z,99864.78
2022-11-01T20:14:24.137Z,99860.41
2022-11-01T20:16:53.660Z,99848.75
2022-11-01T20:19:21.683Z,99860.94
2022-11-01T20:21:48.221Z,99861.78
2022-11-01T20:24:14.979Z,99869.09
2022-11-01T20:26:42.802Z,99875.47
2022-11-01T20:29:09.739Z,99865.63
2022-11-01T20:31:36.474Z,99864.44
2022-11-01T20:34:03.850Z,99872.47
2022-11-01T20:36:33.427Z,99861.59
2022-11-01T20:39:01.548Z,99880.78
2022-11-01T20:41:28.604Z,99877.06
2022-11-01T20:43:55.159Z,99882.97
2022-11-01T20:46:21.988Z,99864.44
2022-11-01T20:48:48.498Z,99860.25
2022-11-01T20:51:15.386Z,99878.69
2022-11-01T20:53:43.615Z,99863.84
2022-11-01T20:56:10.246Z,99858.16
2022-11-01T20:58:39.720Z,99856.25
2022-11-01T21:01:13.027Z,99874.59
2022-11-01T21:03:39.712Z,99871.38
2022-11-01T21:06:11.627Z,99867.28
2022-11-01T21:08:38.443Z,99877.25
2022-11-01T21:11:14.114Z,99864.94
2022-11-01T21:13:42.781Z,99855.44
2022-11-01T21:16:20.217Z,99866.19
2022-11-01T21:18:46.888Z,99844.78
2022-11-01T21:21:35.069Z,99864.56
2022-11-01T21:24:29.688Z,99854.63
2022-11-01T21:27:26.424Z,99859.50
2022-11-01T21:29:57.998Z,99864.69
2022-11-01T21:32:26.772Z,99860.22
2022-11-01T21:34:53.849Z,99870.56
2022-11-01T21:37:21.319Z,99865.63
2022-11-01T21:39:53.774Z,99863.53
2022-11-01T21:42:30.326Z,99871.31
2022-11-01T21:44:56.907Z,99856.03
2022-11-01T21:47:24.971Z,99861.41
2022-11-01T21:49:51.601Z,99845.09
2022-11-01T21:52:18.492Z,99845.56
2022-11-01T21:54:45.935Z,99836.47
2022-11-01T21:57:13.645Z,99829.88
2022-11-01T21:59:42.098Z,99851.28
2022-11-01T22:02:13.220Z,99846.66
2022-11-01T22:04:40.381Z,99858.44
2022-11-01T22:07:09.059Z,99856.25
2022-11-01T22:09:35.768Z,99845.78
2022-11-01T22:12:02.463Z,99847.91
2022-11-01T22:14:29.213Z,99839.31
2022-11-01T22:16:57.086Z,99846.53
2022-11-01T22:19:23.952Z,99840.09
2022-11-01T22:21:50.593Z,99828.31
2022-11-01T22:24:17.273Z,99847.28
2022-11-01T22:26:43.793Z,99852.91
2022-11-01T22:29:10.505Z,99832.66
2022-11-01T22:31:37.124Z,99826.28
2022-11-01T22:34:05.095Z,99820.56
2022-11-01T22:36:35.423Z,99824.91
2022-11-01T22:39:11.321Z,99817.78
2022-11-01T22:41:42.402Z,99820.44
2022-11-01T22:44:13.717Z,99825.19
2022-11-01T22:46:45.758Z,99812.84
2022-11-01T22:49:16.743Z,99805.50
2022-11-01T22:51:46.107Z,99793.50
2022-11-01T22:54:34.362Z,99813.41
2022-11-01T22:57:09.299Z,99808.56
2022-11-01T22:59:39.132Z,99806.34
2022-11-01T23:02:23.994Z,99799.47
2022-11-01T23:04:57.871Z,99797.28
2022-11-01T23:07:32.679Z,99798.31
2022-11-01T23:09:59.821Z,99796.09
2022-11-01T23:12:26.296Z,99806.69
2022-11-01T23:14:52.773Z,99798.97
2022-11-01T23:17:21.479Z,99802.06
2022-11-01T23:19:52.524Z,99789.94
2022-11-01T23:22:21.471Z,99789.69
2022-11-01T23:24:50.200Z,99786.38
2022-11-01T23:27:17.012Z,99798.03
2022-11-01T23:29:43.662Z,99794.72
2022-11-01T23:32:11.669Z,99785.75
2022-11-01T23:34:38.273Z,99777.31
2022-11-01T23:37:12.951Z,99789.63
2022-11-01T23:39:39.593Z,99794.22
2022-11-01T23:42:14.034Z,99791.75
2022-11-01T23:44:41.641Z,99789.63
2022-11-01T23:47:19.029Z,99780.19
2022-11-01T23:49:46.576Z,99783.03
2022-11-01T23:52:26.882Z,99772.31
2022-11-01T23:54:53.501Z,99772.31
2022-11-01T23:57:21.285Z,99775.56
2022-11-01T23:59:49.619Z,99775.31
